Time;durP1;ratioP1;P1;durP2;ratioP2;P2;SDS_P1;SDS_P2;PMS_P1;PMS_P2;Temp;Humidity;BMP_temperature;BMP_pressure;BME280_temperature;BME280_humidity;BME280_pressure;Samples;Min_cycle;Max_cycle;Signal;HPM_P1;HPM_P2
2022/10/03 00:06:46;;;;;;;17.40;2.33;;;9.10;99.90;;;;;;5160592;27;20037;-81
2022/10/03 00:13:25;;;;;;;18.83;2.05;;;9.00;99.90;;;;;;5145296;27;20473;-79
2022/10/03 00:16:46;;;;;;;16.40;1.92;;;9.00;99.90;;;;;;5120315;27;20041;-79
2022/10/03 00:19:54;;;;;;;17.63;2.00;;;9.00;99.90;;;;;;5161707;27;20039;-80
2022/10/03 00:22:57;;;;;;;15.82;1.92;;;9.00;99.90;;;;;;5149668;27;20452;-80
2022/10/03 00:25:56;;;;;;;11.02;1.50;;;9.20;99.90;;;;;;5168787;27;20043;-80
2022/10/03 00:28:43;;;;;;;11.88;1.63;;;8.90;99.90;;;;;;5168950;27;20400;-81
2022/10/03 00:31:16;;;;;;;13.88;1.80;;;9.00;99.90;;;;;;5168993;27;20049;-79
2022/10/03 00:34:02;;;;;;;12.18;1.90;;;9.00;99.90;;;;;;5142389;27;20050;-80
2022/10/03 00:37:04;;;;;;;11.77;1.60;;;9.00;99.90;;;;;;5161421;27;20034;-80
2022/10/03 00:39:54;;;;;;;10.90;1.80;;;9.00;99.90;;;;;;5089139;28;20048;-79
2022/10/03 00:42:32;;;;;;;15.50;2.20;;;9.00;99.90;;;;;;5108693;28;20090;-80
2022/10/03 00:45:36;;;;;;;16.40;2.40;;;9.10;99.90;;;;;;5082969;28;20059;-80
2022/10/03 00:48:20;;;;;;;10.98;1.85;;;9.10;99.90;;;;;;5077358;28;20617;-81
2022/10/03 00:51:10;;;;;;;14.07;1.60;;;9.10;99.90;;;;;;5083812;28;20042;-81
2022/10/03 00:53:40;;;;;;;13.65;1.75;;;9.20;99.90;;;;;;5091093;28;20044;-81
2022/10/03 00:56:30;;;;;;;12.98;2.03;;;9.50;99.90;;;;;;5084107;28;20788;-80
2022/10/03 00:59:10;;;;;;;11.35;1.80;;;9.30;99.90;;;;;;5101225;28;20044;-80
2022/10/03 01:01:43;;;;;;;11.05;2.00;;;9.50;99.90;;;;;;5100395;28;20126;-80
2022/10/03 01:04:27;;;;;;;9.95;1.40;;;9.30;99.90;;;;;;5099173;28;20078;-80
2022/10/03 01:07:07;;;;;;;14.13;2.03;;;9.30;99.90;;;;;;5096888;28;20065;-81
2022/10/03 01:09:52;;;;;;;10.18;1.65;;;9.30;99.90;;;;;;5096622;28;20060;-80
2022/10/03 01:12:17;;;;;;;17.43;2.07;;;9.30;99.90;;;;;;5081358;28;20113;-80
2022/10/03 01:15:05;;;;;;;11.65;1.50;;;9.60;99.90;;;;;;5121584;27;20042;-81
2022/10/03 01:18:00;;;;;;;11.43;1.58;;;9.30;99.90;;;;;;5164668;27;20369;-81
2022/10/03 01:20:49;;;;;;;13.65;2.42;;;9.30;99.90;;;;;;5161250;27;20060;-80
2022/10/03 01:23:37;;;;;;;13.48;1.40;;;9.30;99.90;;;;;;5161246;27;20046;-78
2022/10/03 01:26:18;;;;;;;14.60;1.98;;;9.30;99.90;;;;;;5160383;27;20046;-80
2022/10/03 01:31:58;;;;;;;14.85;2.15;;;9.30;99.90;;;;;;5144603;27;20456;-80
2022/10/03 01:34:57;;;;;;;12.52;1.52;;;9.40;99.90;;;;;;5162171;27;20052;-80
2022/10/03 01:37:48;;;;;;;13.15;2.22;;;9.50;99.90;;;;;;5088219;28;20068;-80
2022/10/03 01:40:36;;;;;;;10.60;1.90;;;9.50;99.90;;;;;;5087601;28;20490;-80
2022/10/03 01:43:02;;;;;;;13.60;1.67;;;9.50;99.90;;;;;;5087927;28;20402;-81
2022/10/03 01:45:56;;;;;;;13.93;2.10;;;9.50;99.90;;;;;;5087416;28;20056;-81
2022/10/03 01:48:49;;;;;;;18.08;2.38;;;9.60;99.90;;;;;;5087795;28;20110;-80
2022/10/03 01:51:43;;;;;;;15.93;2.28;;;9.60;99.90;;;;;;5047371;28;20408;-80
2022/10/03 01:54:29;;;;;;;10.90;1.70;;;9.60;99.90;;;;;;5043158;28;20622;-80
2022/10/03 01:57:14;;;;;;;14.63;2.03;;;9.60;99.90;;;;;;5040939;28;20189;-80
2022/10/03 01:59:51;;;;;;;14.45;1.83;;;9.90;99.90;;;;;;5030820;28;20049;-80
2022/10/03 02:02:28;;;;;;;13.73;1.60;;;9.50;99.90;;;;;;5046916;28;20052;-78
2022/10/03 02:05:18;;;;;;;11.38;2.00;;;9.50;99.90;;;;;;5047758;28;20060;-80
2022/10/03 02:08:18;;;;;;;14.05;1.50;;;9.50;99.90;;;;;;5047146;28;20049;-80
2022/10/03 02:10:57;;;;;;;15.88;1.65;;;9.50;99.90;;;;;;5049062;28;20129;-80
2022/10/03 02:13:39;;;;;;;16.50;1.88;;;9.50;99.90;;;;;;5059718;28;20503;-79
2022/10/03 02:16:42;;;;;;;12.88;1.80;;;9.50;99.90;;;;;;5082573;28;20060;-80
2022/10/03 02:19:41;;;;;;;17.20;1.73;;;9.50;99.90;;;;;;5067100;28;20735;-80
2022/10/03 02:22:34;;;;;;;13.40;1.90;;;9.50;99.90;;;;;;5089779;28;20055;-80
2022/10/03 02:25:04;;;;;;;12.35;1.63;;;9.50;99.90;;;;;;5083721;28;20063;-80
2022/10/03 02:28:02;;;;;;;13.55;1.80;;;9.50;99.90;;;;;;5080745;27;20069;-80
2022/10/03 02:30:38;;;;;;;17.10;2.00;;;9.50;99.90;;;;;;5146132;27;20136;-81
2022/10/03 02:33:32;;;;;;;13.50;1.70;;;9.50;99.90;;;;;;5161244;27;20039;-80
2022/10/03 02:36:24;;;;;;;12.50;1.67;;;9.50;99.90;;;;;;5163017;27;20050;-80
2022/10/03 02:39:15;;;;;;;13.98;1.85;;;9.50;99.90;;;;;;5160745;27;20107;-80
2022/10/03 02:41:48;;;;;;;14.25;1.73;;;9.50;99.90;;;;;;5161743;27;20089;-81
2022/10/03 02:44:35;;;;;;;17.63;2.03;;;9.50;99.90;;;;;;5141517;27;20520;-81
2022/10/03 02:47:38;;;;;;;8.70;1.23;;;9.50;99.90;;;;;;5142464;27;20366;-81
2022/10/03 02:50:41;;;;;;;14.68;2.00;;;9.50;99.90;;;;;;5143153;27;20054;-79
2022/10/03 02:53:53;;;;;;;13.20;1.80;;;9.50;99.90;;;;;;5158353;27;20042;-81
2022/10/03 02:56:47;;;;;;;11.73;1.70;;;9.60;99.90;;;;;;5138834;27;20063;-81
2022/10/03 02:59:31;;;;;;;9.93;1.58;;;9.60;99.90;;;;;;5122894;27;20050;-81
2022/10/03 03:02:33;;;;;;;15.45;1.88;;;9.60;99.90;;;;;;5135437;27;20139;-78
2022/10/03 03:05:01;;;;;;;13.85;2.00;;;9.70;99.90;;;;;;5125805;27;20160;-80
2022/10/03 03:07:52;;;;;;;17.63;2.10;;;9.80;99.90;;;;;;5145692;27;20061;-81
2022/10/03 03:10:45;;;;;;;8.82;2.25;;;9.80;99.90;;;;;;5133201;27;20486;-80
2022/10/03 03:13:37;;;;;;;17.25;2.35;;;9.90;99.90;;;;;;5146553;27;20050;-81
2022/10/03 03:16:22;;;;;;;16.13;2.17;;;9.90;99.90;;;;;;5131305;28;20047;-81
2022/10/03 03:19:21;;;;;;;20.42;2.30;;;9.90;99.90;;;;;;5112629;28;20126;-81
2022/10/03 03:21:59;;;;;;;21.02;2.00;;;9.90;99.90;;;;;;5130645;27;20051;-81
2022/10/03 03:24:33;;;;;;;12.88;1.95;;;10.00;99.90;;;;;;5122326;27;20050;-81
2022/10/03 03:27:31;;;;;;;11.32;2.00;;;10.00;99.90;;;;;;5120441;28;20050;-81
2022/10/03 03:30:13;;;;;;;15.82;2.50;;;10.00;99.90;;;;;;5145786;27;20042;-81
2022/10/03 03:32:55;;;;;;;17.23;1.95;;;10.00;99.90;;;;;;5139634;27;20126;-80
2022/10/03 03:35:31;;;;;;;10.35;1.60;;;10.00;99.90;;;;;;5138695;27;20104;-81
2022/10/03 03:38:30;;;;;;;8.73;1.80;;;10.00;99.90;;;;;;5141047;27;20042;-81
2022/10/03 03:41:17;;;;;;;9.85;1.52;;;10.00;99.90;;;;;;5128512;27;20486;-81
2022/10/03 03:44:20;;;;;;;7.45;1.52;;;10.00;99.90;;;;;;5126753;27;20832;-81
2022/10/03 03:47:21;;;;;;;9.60;1.70;;;9.90;99.90;;;;;;5123912;27;20050;-81
2022/10/03 03:50:12;;;;;;;12.88;1.77;;;9.90;99.90;;;;;;5121130;27;20051;-82
2022/10/03 03:53:02;;;;;;;10.27;1.88;;;9.80;99.90;;;;;;5130143;27;20039;-80
2022/10/03 03:56:02;;;;;;;11.48;1.73;;;9.70;99.90;;;;;;5142515;27;20051;-81
2022/10/03 03:58:42;;;;;;;12.45;1.60;;;9.70;99.90;;;;;;5151885;27;20504;-81
2022/10/03 04:01:16;;;;;;;13.77;2.50;;;9.60;99.90;;;;;;5161758;27;20073;-81
2022/10/03 04:03:51;;;;;;;13.52;1.67;;;9.70;99.90;;;;;;5149907;27;20030;-81
2022/10/03 04:06:25;;;;;;;11.30;1.50;;;9.60;99.90;;;;;;5158867;27;20129;-81
2022/10/03 04:09:35;;;;;;;10.20;1.45;;;9.50;99.90;;;;;;5162346;27;20493;-80
2022/10/03 04:12:17;;;;;;;8.82;1.63;;;9.40;99.90;;;;;;5099699;28;20060;-81
2022/10/03 04:15:07;;;;;;;13.20;1.40;;;9.40;99.90;;;;;;5084118;28;20044;-78
2022/10/03 04:20:52;;;;;;;12.52;1.60;;;9.30;99.90;;;;;;5097786;28;20096;-80
2022/10/03 04:23:52;;;;;;;14.00;1.85;;;9.30;99.90;;;;;;5088325;28;20170;-80
2022/10/03 04:26:31;;;;;;;12.02;1.80;;;9.30;99.90;;;;;;5097883;28;20237;-81
2022/10/03 04:29:05;;;;;;;14.38;1.63;;;9.20;99.90;;;;;;5097966;28;20529;-81
2022/10/03 04:31:31;;;;;;;11.57;1.73;;;9.20;99.90;;;;;;5097308;28;20055;-81
2022/10/03 04:34:14;;;;;;;9.30;1.65;;;9.40;99.90;;;;;;5097939;28;20044;-81
2022/10/03 04:36:52;;;;;;;12.70;1.80;;;9.20;99.90;;;;;;5083637;28;20043;-81
2022/10/03 04:39:48;;;;;;;10.30;1.77;;;9.10;99.90;;;;;;5097988;28;20048;-81
2022/10/03 04:42:39;;;;;;;12.88;1.70;;;9.10;99.90;;;;;;5099852;28;20229;-80
2022/10/03 04:45:34;;;;;;;13.20;1.75;;;9.10;99.90;;;;;;5081679;28;20079;-81
2022/10/03 04:48:29;;;;;;;7.95;1.67;;;9.10;99.90;;;;;;5144318;27;20067;-82
2022/10/03 04:51:07;;;;;;;10.20;1.75;;;9.10;99.90;;;;;;5143087;27;20686;-82
2022/10/03 04:54:10;;;;;;;9.65;1.77;;;9.10;99.90;;;;;;5149459;27;20051;-82
2022/10/03 04:56:55;;;;;;;14.35;2.08;;;9.10;99.90;;;;;;5165718;27;20138;-82
2022/10/03 04:59:43;;;;;;;;;;;9.00;99.90;;;;;;5164684;27;20416;-80
2022/10/03 05:02:44;;;;;;;13.18;1.75;;;9.00;99.90;;;;;;5148421;27;19930;-81
2022/10/03 05:05:42;;;;;;;16.05;1.83;;;9.00;99.90;;;;;;5158311;27;20050;-82
2022/10/03 05:08:32;;;;;;;11.77;1.75;;;9.00;99.90;;;;;;5161731;27;20576;-82
2022/10/03 05:11:23;;;;;;;11.73;1.70;;;9.00;99.90;;;;;;5156969;27;20027;-82
2022/10/03 05:14:25;;;;;;;8.80;1.20;;;8.90;99.90;;;;;;5162014;27;20042;-82
2022/10/03 05:17:02;;;;;;;8.32;1.60;;;8.80;99.90;;;;;;5146299;27;20046;-81
2022/10/03 05:19:46;;;;;;;17.35;1.80;;;8.80;99.90;;;;;;5164145;27;20050;-81
2022/10/03 05:22:33;;;;;;;12.20;2.25;;;8.80;99.90;;;;;;5163938;27;20046;-81
2022/10/03 05:25:17;;;;;;;9.32;1.60;;;8.80;99.90;;;;;;5161376;27;20126;-79
2022/10/03 05:27:50;;;;;;;7.07;1.85;;;8.70;99.90;;;;;;5162112;27;20047;-79
2022/10/03 05:30:34;;;;;;;10.05;1.60;;;8.70;99.90;;;;;;5154511;27;20083;-80
2022/10/03 05:33:09;;;;;;;10.60;1.67;;;8.70;99.90;;;;;;5163887;27;20095;-83
2022/10/03 05:36:17;;;;;;;9.77;1.30;;;8.60;99.90;;;;;;5133657;27;20199;-82
2022/10/03 05:39:30;;;;;;;10.52;1.58;;;8.60;99.90;;;;;;5067901;28;20128;-82
2022/10/03 05:42:24;;;;;;;6.88;1.92;;;8.60;99.90;;;;;;5060661;28;20048;-82
2022/10/03 05:44:57;;;;;;;13.90;1.95;;;8.60;99.90;;;;;;5067989;28;20085;-82
2022/10/03 05:47:47;;;;;;;11.00;1.67;;;8.60;99.90;;;;;;5051243;28;20062;-81
2022/10/03 05:50:35;;;;;;;14.48;1.98;;;8.50;99.90;;;;;;5067416;28;20083;-80
2022/10/03 05:53:09;;;;;;;15.85;1.80;;;8.50;99.90;;;;;;5068069;28;20234;-81
2022/10/03 05:55:55;;;;;;;6.63;1.23;;;8.50;99.90;;;;;;5067629;28;20053;-83
2022/10/03 05:58:54;;;;;;;11.27;1.80;;;8.50;99.90;;;;;;5047802;28;20053;-82
2022/10/03 06:01:41;;;;;;;9.13;1.55;;;8.50;99.90;;;;;;5047873;28;20053;-83
2022/10/03 06:04:29;;;;;;;8.75;1.38;;;8.50;99.90;;;;;;5030994;28;20420;-82
2022/10/03 06:07:39;;;;;;;6.45;1.75;;;8.50;99.90;;;;;;4968477;28;20055;-83
2022/10/03 06:10:35;;;;;;;13.27;2.45;;;8.50;99.90;;;;;;4904809;29;20404;-82
2022/10/03 06:13:03;;;;;;;9.05;1.65;;;8.50;99.90;;;;;;4929174;29;20055;-80
2022/10/03 06:15:53;;;;;;;12.43;2.05;;;8.50;99.90;;;;;;4946797;28;20062;-81
2022/10/03 06:18:37;;;;;;;10.75;1.55;;;8.60;99.90;;;;;;4966597;28;20133;-81
2022/10/03 06:21:33;;;;;;;9.15;1.70;;;8.90;99.90;;;;;;4960700;28;20492;-82
2022/10/03 06:24:34;;;;;;;10.05;1.70;;;8.50;99.90;;;;;;4961082;28;20059;-81
2022/10/03 06:27:20;;;;;;;9.90;2.08;;;8.60;99.90;;;;;;4961089;28;20051;-82
2022/10/03 06:30:10;;;;;;;10.48;2.47;;;8.60;99.90;;;;;;4961069;28;20062;-81
2022/10/03 06:32:57;;;;;;;14.70;2.03;;;8.60;99.90;;;;;;4957968;28;20499;-82
2022/10/03 06:35:55;;;;;;;13.18;2.00;;;8.60;99.90;;;;;;4950373;28;20062;-82
2022/10/03 06:38:21;;;;;;;15.77;2.50;;;8.70;99.90;;;;;;4962486;28;20094;-82
2022/10/03 06:41:17;;;;;;;10.80;1.90;;;9.20;99.90;;;;;;4960669;28;20817;-81
2022/10/03 06:43:55;;;;;;;10.57;1.77;;;8.80;99.90;;;;;;4988838;28;20107;-80
2022/10/03 06:46:44;;;;;;;12.07;2.20;;;8.90;99.90;;;;;;5054225;27;20186;-81
2022/10/03 06:49:31;;;;;;;8.85;1.90;;;8.90;99.90;;;;;;5128614;27;20090;-81
2022/10/03 06:52:24;;;;;;;15.60;2.38;;;8.90;99.90;;;;;;5126715;27;20402;-80
2022/10/03 06:55:03;;;;;;;14.77;2.45;;;9.00;99.90;;;;;;5138631;27;20085;-80
2022/10/03 06:58:03;;;;;;;15.75;2.47;;;9.00;99.90;;;;;;5152629;27;20521;-80
2022/10/03 07:01:04;;;;;;;16.45;2.80;;;9.10;99.90;;;;;;5161859;27;20049;-78
2022/10/03 07:03:51;;;;;;;16.55;2.55;;;9.20;99.90;;;;;;5143556;27;20397;-79
2022/10/03 07:06:39;;;;;;;11.45;2.03;;;9.30;99.90;;;;;;5162641;27;20460;-79
2022/10/03 07:09:29;;;;;;;14.70;2.80;;;9.30;99.90;;;;;;5165446;27;20155;-79
2022/10/03 07:12:14;;;;;;;20.33;4.05;;;9.50;99.90;;;;;;5155092;27;20486;-79
2022/10/03 07:14:48;;;;;;;13.35;3.97;;;9.60;99.90;;;;;;5141538;27;20568;-82
2022/10/03 07:17:29;;;;;;;12.85;2.95;;;9.60;99.90;;;;;;5140439;27;20054;-81
2022/10/03 07:20:02;;;;;;;15.63;2.65;;;9.70;99.90;;;;;;5152259;27;20047;-78
2022/10/03 07:22:59;;;;;;;15.88;2.83;;;9.80;99.90;;;;;;5171711;27;20042;-80
2022/10/03 07:25:39;;;;;;;11.00;2.38;;;9.90;99.90;;;;;;5158191;27;20407;-79
2022/10/03 07:28:42;;;;;;;21.70;3.05;;;10.00;99.90;;;;;;5153852;27;20072;-77
2022/10/03 07:31:42;;;;;;;17.80;2.78;;;10.10;99.90;;;;;;5140132;27;20062;-78
2022/10/03 07:34:22;;;;;;;13.48;2.22;;;10.20;99.90;;;;;;5141944;27;20129;-81
2022/10/03 07:39:58;;;;;;;13.77;2.70;;;10.50;99.90;;;;;;5160952;27;20445;-80
2022/10/03 07:42:47;;;;;;;16.42;3.42;;;10.60;99.90;;;;;;5160691;27;20146;-82
2022/10/03 07:45:18;;;;;;;14.43;2.60;;;10.70;99.90;;;;;;5162915;27;20047;-79
2022/10/03 07:48:01;;;;;;;11.88;2.88;;;10.90;99.90;;;;;;5144146;27;20106;-81
2022/10/03 07:50:45;;;;;;;13.02;2.47;;;11.00;99.90;;;;;;5163223;27;20061;-79
2022/10/03 07:53:31;;;;;;;14.68;3.03;;;11.50;99.90;;;;;;5173243;27;20046;-82
2022/10/03 07:56:16;;;;;;;21.30;2.92;;;11.30;99.90;;;;;;5163742;27;20062;-81
2022/10/03 07:58:54;;;;;;;17.83;2.55;;;11.50;99.90;;;;;;5148860;27;20046;-81
2022/10/03 08:01:42;;;;;;;17.92;2.08;;;11.60;99.90;;;;;;5153290;27;20049;-78
2022/10/03 08:04:42;;;;;;;11.07;2.10;;;11.80;99.90;;;;;;5134387;27;20054;-80
2022/10/03 08:07:36;;;;;;;14.50;2.92;;;11.90;99.90;;;;;;5142220;27;20062;-77
2022/10/03 08:10:08;;;;;;;13.10;2.10;;;12.10;99.90;;;;;;5153503;27;20672;-78
2022/10/03 08:12:52;;;;;;;19.23;2.35;;;12.20;99.90;;;;;;5117813;27;20092;-79
2022/10/03 08:15:25;;;;;;;16.05;2.17;;;12.40;99.90;;;;;;5115047;27;20039;-78
2022/10/03 08:18:25;;;;;;;10.32;1.80;;;12.50;99.90;;;;;;5115926;27;20465;-80
2022/10/03 08:21:02;;;;;;;13.13;1.60;;;12.60;99.90;;;;;;5143632;27;20047;-79
2022/10/03 08:23:49;;;;;;;9.82;1.70;;;12.80;99.90;;;;;;5145197;27;20465;-81
2022/10/03 08:26:46;;;;;;;10.73;1.50;;;13.00;99.90;;;;;;5134616;27;20584;-81
2022/10/03 08:29:48;;;;;;;11.20;1.50;;;13.20;99.90;;;;;;5137074;27;20103;-83
2022/10/03 08:32:50;;;;;;;10.35;1.60;;;13.40;99.90;;;;;;5089353;28;20070;-80
2022/10/03 08:36:03;;;;;;;12.63;2.10;;;13.60;99.90;;;;;;5089193;28;20044;-83
2022/10/03 08:38:35;;;;;;;12.60;1.40;;;14.00;99.90;;;;;;5085366;28;20052;-78
2022/10/03 08:41:25;;;;;;;18.75;2.10;;;14.10;99.90;;;;;;5088877;28;20063;-81
2022/10/03 08:44:10;;;;;;;6.90;1.70;;;14.40;99.90;;;;;;5088395;28;20140;-79
2022/10/03 08:47:17;;;;;;;9.90;1.60;;;14.60;99.90;;;;;;5089725;28;20035;-81
2022/10/03 08:50:27;;;;;;;9.13;1.73;;;14.80;99.90;;;;;;5064401;28;20585;-80
2022/10/03 08:53:22;;;;;;;17.10;1.80;;;15.10;99.90;;;;;;5048524;28;20544;-81
2022/10/03 08:55:59;;;;;;;24.27;2.47;;;15.20;99.90;;;;;;5049064;28;20128;-79
2022/10/03 08:58:45;;;;;;;7.75;1.40;;;15.20;99.90;;;;;;5032580;28;20117;-79
2022/10/03 09:01:32;;;;;;;12.02;1.83;;;15.50;99.90;;;;;;5049274;28;20056;-77
2022/10/03 09:04:16;;;;;;;14.10;1.98;;;15.60;99.90;;;;;;5049426;28;20841;-79
2022/10/03 09:07:09;;;;;;;14.65;1.40;;;15.90;99.90;;;;;;5033221;28;20043;-81
2022/10/03 09:09:53;;;;;;;9.88;1.33;;;15.90;99.90;;;;;;5052305;28;20056;-81
2022/10/03 09:12:41;;;;;;;18.67;1.98;;;16.30;99.90;;;;;;5069014;28;20058;-80
2022/10/03 09:15:34;;;;;;;10.27;1.80;;;16.20;99.90;;;;;;5051672;28;20044;-80
2022/10/03 09:18:32;;;;;;;7.50;1.20;;;16.40;99.90;;;;;;5068919;28;20071;-80
2022/10/03 09:21:40;;;;;;;13.50;2.47;;;16.60;99.90;;;;;;5052248;28;20040;-81
2022/10/03 09:24:17;;;;;;;8.63;1.30;;;16.80;99.90;;;;;;5055134;28;20137;-79
2022/10/03 09:27:13;;;;;;;10.25;2.00;;;16.90;99.90;;;;;;5079795;28;20433;-78
2022/10/03 09:29:45;;;;;;;10.10;1.73;;;16.90;99.90;;;;;;5125573;27;20515;-76
2022/10/03 09:32:39;;;;;;;10.07;1.30;;;17.00;99.90;;;;;;5136813;27;20043;-79
2022/10/03 09:35:22;;;;;;;5.55;1.10;;;17.20;99.90;;;;;;5143528;27;20138;-79
2022/10/03 09:38:25;;;;;;;10.07;1.60;;;17.30;99.90;;;;;;5132748;27;20047;-74
2022/10/03 09:41:09;;;;;;;7.80;1.10;;;17.20;99.90;;;;;;5122233;27;20057;-76
2022/10/03 09:44:09;;;;;;;12.35;1.27;;;17.40;99.90;;;;;;5151023;27;20046;-81
2022/10/03 09:50:01;;;;;;;10.85;1.45;;;17.50;99.90;;;;;;5132786;27;20592;-78
2022/10/03 09:53:05;;;;;;;12.20;2.38;;;17.70;99.90;;;;;;5151469;27;20043;-80
2022/10/03 09:56:07;;;;;;;10.90;1.10;;;17.70;99.90;;;;;;5085030;28;20044;-76
2022/10/03 09:59:16;;;;;;;9.90;1.10;;;17.70;99.90;;;;;;5090890;28;20116;-78
2022/10/03 10:02:10;;;;;;;7.32;0.90;;;17.80;99.90;;;;;;5095750;28;20066;-78
2022/10/03 10:05:03;;;;;;;7.80;1.83;;;18.00;99.90;;;;;;5105512;28;20122;-80
2022/10/03 10:07:43;;;;;;;9.38;1.27;;;18.00;99.90;;;;;;5106990;28;20059;-76
2022/10/03 10:10:42;;;;;;;8.27;1.48;;;18.10;99.90;;;;;;5107637;28;20048;-79
2022/10/03 10:13:15;;;;;;;7.95;1.25;;;18.00;99.90;;;;;;5092903;23;20036;-80
2022/10/03 10:16:07;;;;;;;7.47;0.93;;;18.30;99.90;;;;;;5086448;28;20051;-79
2022/10/03 10:19:14;;;;;;;8.65;1.20;;;18.20;99.90;;;;;;5084180;28;20044;-80
2022/10/03 10:24:36;;;;;;;6.95;1.33;;;18.10;99.90;;;;;;5167359;22;20134;-81
2022/10/03 10:27:41;;;;;;;8.93;1.15;;;18.30;99.90;;;;;;5076567;28;20052;-78
2022/10/03 10:30:41;;;;;;;5.05;0.90;;;18.00;99.90;;;;;;5083264;28;20127;-88
2022/10/03 10:33:23;;;;;;;8.05;1.10;;;18.10;99.90;;;;;;5073589;28;20070;-79
2022/10/03 10:35:50;;;;;;;7.82;1.08;;;18.10;99.90;;;;;;5087957;28;20119;-82
2022/10/03 10:38:42;;;;;;;10.82;1.13;;;18.00;99.90;;;;;;5080591;28;20052;-82
2022/10/03 10:41:33;;;;;;;9.70;1.15;;;18.10;99.90;;;;;;5090790;22;20044;-83
2022/10/03 10:44:45;;;;;;;7.28;0.93;;;18.30;99.90;;;;;;5069573;28;20058;-83
2022/10/03 10:47:29;;;;;;;8.07;1.73;;;18.30;99.90;;;;;;5082745;28;20050;-81
2022/10/03 10:50:17;;;;;;;4.87;1.00;;;18.30;99.90;;;;;;5080173;28;20047;-78
2022/10/03 10:53:06;;;;;;;10.15;1.23;;;18.30;99.90;;;;;;5070711;28;20063;-82
2022/10/03 10:56:11;;;;;;;10.32;1.17;;;18.30;99.90;;;;;;5070241;28;20505;-80
2022/10/03 10:58:57;;;;;;;6.85;0.82;;;18.30;99.90;;;;;;5070145;28;20064;-82
2022/10/03 11:01:32;;;;;;;6.82;0.90;;;18.20;99.90;;;;;;5076799;28;20041;-80
2022/10/03 11:04:17;;;;;;;7.07;1.20;;;18.20;99.90;;;;;;5066353;28;20067;-77
2022/10/03 11:07:07;;;;;;;8.37;1.63;;;18.30;99.90;;;;;;5080356;28;20808;-81
2022/10/03 11:09:36;;;;;;;7.32;1.05;;;18.40;99.90;;;;;;5083113;28;20293;-79
2022/10/03 11:12:49;;;;;;;7.03;1.00;;;18.50;99.90;;;;;;5067003;28;20103;-78
2022/10/03 11:15:26;;;;;;;12.45;1.60;;;18.40;99.90;;;;;;5041680;28;20085;-77
2022/10/03 11:18:07;;;;;;;11.05;1.25;;;18.60;99.90;;;;;;5043135;28;20132;-79
2022/10/03 11:21:03;;;;;;;6.95;1.20;;;18.70;99.90;;;;;;5048041;28;20128;-80
2022/10/03 11:23:46;;;;;;;6.28;1.00;;;18.60;99.90;;;;;;5041817;28;20152;-78
2022/10/03 11:26:32;;;;;;;4.65;0.82;;;18.60;99.90;;;;;;5040451;28;20601;-78
2022/10/03 11:29:19;;;;;;;7.72;1.10;;;18.50;99.90;;;;;;5048876;28;20037;-76
2022/10/03 11:32:16;;;;;;;5.72;1.00;;;18.40;99.90;;;;;;5034506;28;20577;-77
2022/10/03 11:34:56;;;;;;;5.63;0.95;;;18.40;99.90;;;;;;5035051;28;20049;-79
2022/10/03 11:37:47;;;;;;;9.68;1.55;;;18.40;99.90;;;;;;5032149;28;20154;-77
2022/10/03 11:40:34;;;;;;;6.57;1.30;;;18.60;99.90;;;;;;4965164;28;20181;-77
2022/10/03 11:43:37;;;;;;;7.68;1.38;;;18.50;99.90;;;;;;4962432;28;20675;-79
2022/10/03 11:46:26;;;;;;;7.35;1.30;;;18.40;99.90;;;;;;4959775;28;20054;-77
2022/10/03 11:49:11;;;;;;;5.85;1.10;;;18.30;99.90;;;;;;4962141;28;20494;-76
2022/10/03 11:51:46;;;;;;;9.23;1.07;;;18.40;99.90;;;;;;4979580;28;20065;-82
2022/10/03 11:54:17;;;;;;;6.78;0.90;;;18.70;99.90;;;;;;4992018;28;20046;-80
2022/10/03 11:56:46;;;;;;;8.68;1.10;;;18.60;99.90;;;;;;5005247;28;20520;-76
2022/10/03 11:59:24;;;;;;;6.43;0.90;;;18.60;99.90;;;;;;4974047;28;20453;-79
2022/10/03 12:02:00;;;;;;;5.25;0.90;;;18.50;99.90;;;;;;4994548;28;20089;-76
2022/10/03 12:04:55;;;;;;;8.55;1.23;;;18.50;99.90;;;;;;4996545;28;20050;-79
2022/10/03 12:10:38;;;;;;;10.32;1.33;;;18.50;99.90;;;;;;4987173;28;20176;-78
2022/10/03 12:13:16;;;;;;;6.32;1.60;;;18.40;99.90;;;;;;4989506;28;20058;-80
2022/10/03 12:15:41;;;;;;;7.90;1.10;;;18.40;99.90;;;;;;4997571;28;20046;-78
2022/10/03 12:18:20;;;;;;;12.93;1.85;;;18.50;99.90;;;;;;5069189;28;20051;-77
2022/10/03 12:20:57;;;;;;;8.10;1.10;;;18.50;99.90;;;;;;5078470;28;20052;-77
2022/10/03 12:23:31;;;;;;;5.30;0.90;;;18.40;99.90;;;;;;5084089;28;20302;-76
2022/10/03 12:26:01;;;;;;;9.80;1.15;;;18.50;99.90;;;;;;5072881;28;20036;-77
2022/10/03 12:28:45;;;;;;;5.93;1.35;;;18.50;99.90;;;;;;5080295;28;20087;-80
2022/10/03 12:31:36;;;;;;;6.50;1.00;;;18.50;99.90;;;;;;5080272;28;20048;-78
2022/10/03 12:34:23;;;;;;;7.05;0.93;;;18.70;99.90;;;;;;5053831;28;20142;-74
2022/10/03 12:36:54;;;;;;;8.65;1.20;;;18.80;99.90;;;;;;5075210;28;20627;-76
2022/10/03 12:39:45;;;;;;;11.93;1.33;;;18.90;99.90;;;;;;5091096;28;20406;-78
2022/10/03 12:42:29;;;;;;;7.50;1.10;;;18.80;99.90;;;;;;5072925;28;20168;-79
2022/10/03 12:45:01;;;;;;;7.03;0.90;;;18.90;99.90;;;;;;5053010;28;20522;-81
2022/10/03 12:47:54;;;;;;;6.13;1.10;;;19.10;99.90;;;;;;5072134;28;20709;-78
2022/10/03 12:50:46;;;;;;;6.15;1.00;;;19.10;99.90;;;;;;5071673;28;20045;-80
2022/10/03 12:53:24;;;;;;;5.05;0.75;;;18.90;99.90;;;;;;5012231;28;20061;-80
2022/10/03 12:56:13;;;;;;;7.03;1.00;;;19.20;99.90;;;;;;5026295;28;20058;-80
2022/10/03 12:59:06;;;;;;;7.93;1.00;;;18.80;99.90;;;;;;5021419;28;20129;-81
2022/10/03 13:01:53;;;;;;;5.60;0.90;;;18.80;99.90;;;;;;5028841;28;20046;-81
2022/10/03 13:04:46;;;;;;;8.25;1.00;;;18.70;99.90;;;;;;5012930;28;20100;-81
2022/10/03 13:07:31;;;;;;;8.00;1.33;;;18.70;99.90;;;;;;5020575;28;20041;-80
2022/10/03 13:10:30;;;;;;;5.28;1.48;;;18.70;99.90;;;;;;5022422;28;20042;-83
2022/10/03 13:13:30;;;;;;;7.35;0.80;;;18.70;99.90;;;;;;4989148;28;20436;-83
2022/10/03 13:16:13;;;;;;;7.53;0.98;;;18.90;99.90;;;;;;5039177;28;20045;-82
2022/10/03 13:18:58;;;;;;;7.50;1.10;;;19.00;99.90;;;;;;5027968;28;20065;-80
2022/10/03 13:22:02;;;;;;;5.85;1.08;;;18.90;99.90;;;;;;5000860;28;20093;-81
2022/10/03 13:24:31;;;;;;;6.65;1.13;;;18.80;99.90;;;;;;5005851;28;20046;-81
2022/10/03 13:27:31;;;;;;;4.35;0.60;;;18.80;99.90;;;;;;5009103;28;20442;-79
2022/10/03 13:30:05;;;;;;;11.02;1.05;;;18.90;99.90;;;;;;5028813;28;20060;-83
2022/10/03 13:32:44;;;;;;;10.90;1.42;;;18.80;99.90;;;;;;5072849;28;20071;-79
2022/10/03 13:38:45;;;;;;;8.23;1.33;;;19.10;99.90;;;;;;5088725;28;20048;-82
2022/10/03 13:41:58;;;;;;;8.68;1.30;;;19.30;99.90;;;;;;5080875;28;20566;-77
2022/10/03 13:44:36;;;;;;;8.68;1.00;;;19.30;99.90;;;;;;5089825;28;20056;-83
2022/10/03 13:47:10;;;;;;;5.82;0.98;;;19.30;99.90;;;;;;5090364;28;20101;-83
2022/10/03 13:50:18;;;;;;;6.95;1.00;;;19.30;99.90;;;;;;5072324;28;20059;-82
2022/10/03 13:52:55;;;;;;;5.60;1.00;;;19.20;99.90;;;;;;5051716;28;20557;-82
2022/10/03 13:55:46;;;;;;;5.45;1.13;;;19.10;99.90;;;;;;5067366;28;20048;-81
2022/10/03 13:58:42;;;;;;;8.70;1.02;;;19.00;99.90;;;;;;5051338;28;20139;-82
2022/10/03 14:01:39;;;;;;;6.75;1.15;;;19.00;99.90;;;;;;5068398;28;20040;-83
2022/10/03 14:04:07;;;;;;;7.20;1.33;;;19.00;99.90;;;;;;5068354;28;20057;-80
2022/10/03 14:06:39;;;;;;;9.65;0.93;;;19.20;99.90;;;;;;5068012;28;20123;-82
2022/10/03 14:09:16;;;;;;;8.73;1.58;;;19.00;99.90;;;;;;5068347;28;20052;-81
2022/10/03 14:12:00;;;;;;;8.02;0.90;;;19.00;99.90;;;;;;5033931;28;20064;-81
2022/10/03 14:14:50;;;;;;;8.32;1.30;;;19.00;99.90;;;;;;5068016;28;20040;-81
2022/10/03 14:18:08;;;;;;;8.63;1.13;;;18.90;99.90;;;;;;5067892;28;20079;-81
2022/10/03 14:20:36;;;;;;;6.63;1.50;;;18.90;99.90;;;;;;5049446;28;20069;-82
2022/10/03 14:23:17;;;;;;;6.43;1.05;;;18.90;99.90;;;;;;5074804;28;20136;-82
2022/10/03 14:26:12;;;;;;;6.97;1.02;;;18.90;99.90;;;;;;5071966;28;20089;-80
2022/10/03 14:29:09;;;;;;;6.90;1.00;;;18.90;99.90;;;;;;5089928;28;20126;-78
2022/10/03 14:31:45;;;;;;;10.30;1.30;;;18.70;99.90;;;;;;5089062;28;20071;-84
2022/10/03 14:34:38;;;;;;;5.97;1.05;;;18.70;99.90;;;;;;5074540;28;20052;-81
2022/10/03 14:37:34;;;;;;;9.80;1.10;;;18.60;99.90;;;;;;5081136;28;20055;-81
2022/10/03 14:40:11;;;;;;;7.68;1.15;;;18.50;99.90;;;;;;5070010;28;20277;-80
2022/10/03 14:42:52;;;;;;;5.35;0.90;;;18.50;99.90;;;;;;5078986;28;20067;-80
2022/10/03 14:45:25;;;;;;;5.00;1.00;;;18.40;99.90;;;;;;5054523;28;20563;-80
2022/10/03 14:47:56;;;;;;;6.18;0.90;;;18.30;99.90;;;;;;5071109;28;20054;-84
2022/10/03 14:50:25;;;;;;;7.57;1.20;;;18.20;99.90;;;;;;5085465;28;20132;-80
2022/10/03 14:53:07;;;;;;;6.30;0.95;;;18.30;99.90;;;;;;5071829;28;20127;-79
2022/10/03 14:55:45;;;;;;;7.57;1.00;;;18.30;99.90;;;;;;5071376;28;20465;-80
2022/10/03 14:58:22;;;;;;;6.35;1.13;;;18.30;99.90;;;;;;5069557;28;20074;-84
2022/10/03 15:00:55;;;;;;;6.57;1.00;;;18.40;99.90;;;;;;5069878;28;20488;-82